sensor_id;sensor_type;location;lat;lon;timestamp;temperature;humidity
5850;DHT22;2951;47.712;9.400;2023-11-21T00:02:56;8.40;99.90
5850;DHT22;2951;47.712;9.400;2023-11-21T00:05:24;8.40;99.90
5850;DHT22;2951;47.712;9.400;2023-11-21T00:07:50;8.40;99.90
5850;DHT22;2951;47.712;9.400;2023-11-21T00:10:19;8.30;99.90
5850;DHT22;2951;47.712;9.400;2023-11-21T00:12:46;8.20;99.90
5850;DHT22;2951;47.712;9.400;2023-11-21T00:15:14;8.20;99.90
5850;DHT22;2951;47.712;9.400;2023-11-21T00:17:41;8.10;99.90
5850;DHT22;2951;47.712;9.400;2023-11-21T00:20:09;8.00;99.90
5850;DHT22;2951;47.712;9.400;2023-11-21T00:22:39;8.00;99.90
5850;DHT22;2951;47.712;9.400;2023-11-21T00:25:07;8.00;99.90
5850;DHT22;2951;47.712;9.400;2023-11-21T00:27:36;8.00;99.90
5850;DHT22;2951;47.712;9.400;2023-11-21T00:30:03;8.00;99.90
5850;DHT22;2951;47.712;9.400;2023-11-21T00:32:37;8.00;99.90
5850;DHT22;2951;47.712;9.400;2023-11-21T00:35:04;8.10;99.90
5850;DHT22;2951;47.712;9.400;2023-11-21T00:37:32;8.10;99.90
5850;DHT22;2951;47.712;9.400;2023-11-21T00:39:59;8.10;99.90
5850;DHT22;2951;47.712;9.400;2023-11-21T00:42:25;8.10;99.90
5850;DHT22;2951;47.712;9.400;2023-11-21T00:44:52;8.00;99.90
5850;DHT22;2951;47.712;9.400;2023-11-21T00:47:19;7.90;99.90
5850;DHT22;2951;47.712;9.400;2023-11-21T00:49:45;7.90;99.90
5850;DHT22;2951;47.712;9.400;2023-11-21T00:52:12;7.90;99.90
5850;DHT22;2951;47.712;9.400;2023-11-21T00:54:40;7.90;99.90
5850;DHT22;2951;47.712;9.400;2023-11-21T00:57:07;8.00;99.90
5850;DHT22;2951;47.712;9.400;2023-11-21T00:59:35;8.00;99.90
5850;DHT22;2951;47.712;9.400;2023-11-21T01:02:05;7.90;99.90
5850;DHT22;2951;47.712;9.400;2023-11-21T01:04:32;7.90;99.90
5850;DHT22;2951;47.712;9.400;2023-11-21T01:06:59;7.90;99.90
5850;DHT22;2951;47.712;9.400;2023-11-21T01:09:27;7.90;99.90
5850;DHT22;2951;47.712;9.400;2023-11-21T01:11:54;7.80;99.90
5850;DHT22;2951;47.712;9.400;2023-11-21T01:14:21;7.80;99.90
5850;DHT22;2951;47.712;9.400;2023-11-21T01:16:47;7.80;99.90
5850;DHT22;2951;47.712;9.400;2023-11-21T01:19:15;7.90;99.90
5850;DHT22;2951;47.712;9.400;2023-11-21T01:21:42;7.90;99.90
5850;DHT22;2951;47.712;9.400;2023-11-21T01:24:10;7.90;99.90
5850;DHT22;2951;47.712;9.400;2023-11-21T01:26:37;7.80;99.90
5850;DHT22;2951;47.712;9.400;2023-11-21T01:29:04;7.80;99.90
5850;DHT22;2951;47.712;9.400;2023-11-21T01:31:32;7.80;99.90
5850;DHT22;2951;47.712;9.400;2023-11-21T01:33:59;7.80;99.90
5850;DHT22;2951;47.712;9.400;2023-11-21T01:36:30;7.70;99.90
5850;DHT22;2951;47.712;9.400;2023-11-21T01:38:58;7.70;99.90
5850;DHT22;2951;47.712;9.400;2023-11-21T01:41:27;7.70;99.90
5850;DHT22;2951;47.712;9.400;2023-11-21T01:43:55;7.70;99.90
5850;DHT22;2951;47.712;9.400;2023-11-21T01:46:22;7.60;99.90
5850;DHT22;2951;47.712;9.400;2023-11-21T01:48:49;7.60;99.90
5850;DHT22;2951;47.712;9.400;2023-11-21T01:51:16;7.60;99.90
5850;DHT22;2951;47.712;9.400;2023-11-21T01:53:45;7.60;99.90
5850;DHT22;2951;47.712;9.400;2023-11-21T01:56:13;7.60;99.90
5850;DHT22;2951;47.712;9.400;2023-11-21T01:58:40;7.60;99.90
5850;DHT22;2951;47.712;9.400;2023-11-21T02:01:08;7.60;99.90
5850;DHT22;2951;47.712;9.400;2023-11-21T02:03:40;7.60;99.90
5850;DHT22;2951;47.712;9.400;2023-11-21T02:06:07;7.60;99.90
5850;DHT22;2951;47.712;9.400;2023-11-21T02:08:36;7.50;99.90
5850;DHT22;2951;47.712;9.400;2023-11-21T02:11:04;7.60;99.90
5850;DHT22;2951;47.712;9.400;2023-11-21T02:13:31;7.60;99.90
5850;DHT22;2951;47.712;9.400;2023-11-21T02:15:59;7.60;99.90
5850;DHT22;2951;47.712;9.400;2023-11-21T02:18:26;7.60;99.90
5850;DHT22;2951;47.712;9.400;2023-11-21T02:20:55;7.60;99.90
5850;DHT22;2951;47.712;9.400;2023-11-21T02:23:22;7.70;99.90
5850;DHT22;2951;47.712;9.400;2023-11-21T02:25:49;7.60;99.90
5850;DHT22;2951;47.712;9.400;2023-11-21T02:28:16;7.60;99.90
5850;DHT22;2951;47.712;9.400;2023-11-21T02:30:53;7.60;99.90
5850;DHT22;2951;47.712;9.400;2023-11-21T02:33:25;7.70;99.90
5850;DHT22;2951;47.712;9.400;2023-11-21T02:35:52;7.70;99.90
5850;DHT22;2951;47.712;9.400;2023-11-21T02:38:21;7.60;99.90
5850;DHT22;2951;47.712;9.400;2023-11-21T02:40:48;7.50;99.90
5850;DHT22;2951;47.712;9.400;2023-11-21T02:43:15;7.50;99.90
5850;DHT22;2951;47.712;9.400;2023-11-21T02:45:42;7.50;99.90
5850;DHT22;2951;47.712;9.400;2023-11-21T02:48:09;7.50;99.90
5850;DHT22;2951;47.712;9.400;2023-11-21T02:50:36;7.50;99.90
5850;DHT22;2951;47.712;9.400;2023-11-21T02:53:05;7.40;99.90
5850;DHT22;2951;47.712;9.400;2023-11-21T02:55:35;7.40;99.90
5850;DHT22;2951;47.712;9.400;2023-11-21T02:58:02;7.40;99.90
5850;DHT22;2951;47.712;9.400;2023-11-21T03:00:31;7.40;99.90
5850;DHT22;2951;47.712;9.400;2023-11-21T03:03:24;7.40;99.90
5850;DHT22;2951;47.712;9.400;2023-11-21T03:05:52;7.40;99.90
5850;DHT22;2951;47.712;9.400;2023-11-21T03:08:18;7.40;99.90
5850;DHT22;2951;47.712;9.400;2023-11-21T03:10:45;7.40;99.90
5850;DHT22;2951;47.712;9.400;2023-11-21T03:13:12;7.40;99.90
5850;DHT22;2951;47.712;9.400;2023-11-21T03:15:40;7.40;99.90
5850;DHT22;2951;47.712;9.400;2023-11-21T03:18:06;7.40;99.90
5850;DHT22;2951;47.712;9.400;2023-11-21T03:20:34;7.30;99.90
5850;DHT22;2951;47.712;9.400;2023-11-21T03:23:01;7.30;99.90
5850;DHT22;2951;47.712;9.400;2023-11-21T03:25:28;7.30;99.90
5850;DHT22;2951;47.712;9.400;2023-11-21T03:27:55;7.30;99.90
5850;DHT22;2951;47.712;9.400;2023-11-21T03:30:21;7.30;99.90
5850;DHT22;2951;47.712;9.400;2023-11-21T03:32:48;7.20;99.90
5850;DHT22;2951;47.712;9.400;2023-11-21T03:35:17;7.30;99.90
5850;DHT22;2951;47.712;9.400;2023-11-21T03:37:44;7.10;99.90
5850;DHT22;2951;47.712;9.400;2023-11-21T03:40:11;7.00;99.90
5850;DHT22;2951;47.712;9.400;2023-11-21T03:42:40;7.00;99.90
5850;DHT22;2951;47.712;9.400;2023-11-21T03:45:08;7.00;99.90
5850;DHT22;2951;47.712;9.400;2023-11-21T03:47:35;7.00;99.90
5850;DHT22;2951;47.712;9.400;2023-11-21T03:50:02;6.90;99.90
5850;DHT22;2951;47.712;9.400;2023-11-21T03:52:29;6.90;99.90
5850;DHT22;2951;47.712;9.400;2023-11-21T03:54:56;6.90;99.90
5850;DHT22;2951;47.712;9.400;2023-11-21T03:57:23;7.00;99.90
5850;DHT22;2951;47.712;9.400;2023-11-21T03:59:53;6.90;99.90
5850;DHT22;2951;47.712;9.400;2023-11-21T04:02:21;6.90;99.90
5850;DHT22;2951;47.712;9.400;2023-11-21T04:04:48;6.90;99.90
5850;DHT22;2951;47.712;9.400;2023-11-21T04:07:17;6.90;99.90
5850;DHT22;2951;47.712;9.400;2023-11-21T04:09:44;6.90;99.90
5850;DHT22;2951;47.712;9.400;2023-11-21T04:12:13;6.90;99.90
5850;DHT22;2951;47.712;9.400;2023-11-21T04:14:39;7.00;99.90
5850;DHT22;2951;47.712;9.400;2023-11-21T04:17:06;6.90;99.90
5850;DHT22;2951;47.712;9.400;2023-11-21T04:19:33;7.00;99.90
5850;DHT22;2951;47.712;9.400;2023-11-21T04:22:00;7.00;99.90
5850;DHT22;2951;47.712;9.400;2023-11-21T04:24:26;7.10;99.90
5850;DHT22;2951;47.712;9.400;2023-11-21T04:26:53;7.10;99.90
5850;DHT22;2951;47.712;9.400;2023-11-21T04:29:20;7.10;99.90
5850;DHT22;2951;47.712;9.400;2023-11-21T04:31:47;7.10;99.90
5850;DHT22;2951;47.712;9.400;2023-11-21T04:34:15;7.20;99.90
5850;DHT22;2951;47.712;9.400;2023-11-21T04:36:42;7.20;99.90
5850;DHT22;2951;47.712;9.400;2023-11-21T04:39:09;7.10;99.90
5850;DHT22;2951;47.712;9.400;2023-11-21T04:41:38;7.20;99.90
5850;DHT22;2951;47.712;9.400;2023-11-21T04:44:09;7.20;99.90
5850;DHT22;2951;47.712;9.400;2023-11-21T04:46:36;7.20;99.90
5850;DHT22;2951;47.712;9.400;2023-11-21T04:49:03;7.10;99.90
5850;DHT22;2951;47.712;9.400;2023-11-21T04:51:29;7.00;99.90
5850;DHT22;2951;47.712;9.400;2023-11-21T04:53:57;7.10;99.90
5850;DHT22;2951;47.712;9.400;2023-11-21T04:56:24;7.00;99.90
5850;DHT22;2951;47.712;9.400;2023-11-21T04:58:51;7.10;99.90
5850;DHT22;2951;47.712;9.400;2023-11-21T05:01:17;7.10;99.90
5850;DHT22;2951;47.712;9.400;2023-11-21T05:03:50;7.10;99.90
5850;DHT22;2951;47.712;9.400;2023-11-21T05:06:17;7.20;99.90
5850;DHT22;2951;47.712;9.400;2023-11-21T05:08:44;7.20;99.90
5850;DHT22;2951;47.712;9.400;2023-11-21T05:11:11;7.20;99.90
5850;DHT22;2951;47.712;9.400;2023-11-21T05:13:37;7.20;99.90
5850;DHT22;2951;47.712;9.400;2023-11-21T05:16:06;7.20;99.90
5850;DHT22;2951;47.712;9.400;2023-11-21T05:18:33;7.30;99.90
5850;DHT22;2951;47.712;9.400;2023-11-21T05:21:01;7.40;99.90
5850;DHT22;2951;47.712;9.400;2023-11-21T05:23:27;7.30;99.90
5850;DHT22;2951;47.712;9.400;2023-11-21T05:25:58;7.30;99.90
5850;DHT22;2951;47.712;9.400;2023-11-21T05:28:24;7.40;99.90
5850;DHT22;2951;47.712;9.400;2023-11-21T05:30:52;7.40;99.90
5850;DHT22;2951;47.712;9.400;2023-11-21T05:33:32;7.40;99.90
5850;DHT22;2951;47.712;9.400;2023-11-21T05:35:59;7.40;99.90
5850;DHT22;2951;47.712;9.400;2023-11-21T05:38:26;7.40;99.90
5850;DHT22;2951;47.712;9.400;2023-11-21T05:40:53;7.40;99.90
5850;DHT22;2951;47.712;9.400;2023-11-21T05:43:20;7.50;99.90
5850;DHT22;2951;47.712;9.400;2023-11-21T05:45:49;7.50;99.90
5850;DHT22;2951;47.712;9.400;2023-11-21T05:48:16;7.40;99.90
5850;DHT22;2951;47.712;9.400;2023-11-21T05:50:43;7.40;99.90
5850;DHT22;2951;47.712;9.400;2023-11-21T05:53:09;7.40;99.90
5850;DHT22;2951;47.712;9.400;2023-11-21T05:55:37;7.30;99.90
5850;DHT22;2951;47.712;9.400;2023-11-21T05:58:05;7.40;99.90
5850;DHT22;2951;47.712;9.400;2023-11-21T06:00:33;7.30;99.90
5850;DHT22;2951;47.712;9.400;2023-11-21T06:03:05;7.30;99.90
5850;DHT22;2951;47.712;9.400;2023-11-21T06:05:32;7.40;99.90
5850;DHT22;2951;47.712;9.400;2023-11-21T06:08:00;7.30;99.90
5850;DHT22;2951;47.712;9.400;2023-11-21T06:10:27;7.40;99.90
5850;DHT22;2951;47.712;9.400;2023-11-21T06:12:55;7.30;99.90
5850;DHT22;2951;47.712;9.400;2023-11-21T06:15:25;7.40;99.90
5850;DHT22;2951;47.712;9.400;2023-11-21T06:17:52;7.40;99.90
5850;DHT22;2951;47.712;9.400;2023-11-21T06:20:20;7.40;99.90
5850;DHT22;2951;47.712;9.400;2023-11-21T06:22:47;7.40;99.90
5850;DHT22;2951;47.712;9.400;2023-11-21T06:25:14;7.40;99.90
5850;DHT22;2951;47.712;9.400;2023-11-21T06:27:42;7.40;99.90
5850;DHT22;2951;47.712;9.400;2023-11-21T06:30:09;7.40;99.90
5850;DHT22;2951;47.712;9.400;2023-11-21T06:32:36;7.40;99.90
5850;DHT22;2951;47.712;9.400;2023-11-21T06:35:03;7.50;99.90
5850;DHT22;2951;47.712;9.400;2023-11-21T06:37:31;7.40;99.90
5850;DHT22;2951;47.712;9.400;2023-11-21T06:39:58;7.40;99.90
5850;DHT22;2951;47.712;9.400;2023-11-21T06:42:26;7.50;99.90
5850;DHT22;2951;47.712;9.400;2023-11-21T06:44:53;7.50;99.90
5850;DHT22;2951;47.712;9.400;2023-11-21T06:47:23;7.50;99.90
5850;DHT22;2951;47.712;9.400;2023-11-21T06:49:54;7.50;99.90
5850;DHT22;2951;47.712;9.400;2023-11-21T06:52:21;7.50;99.90
5850;DHT22;2951;47.712;9.400;2023-11-21T06:54:48;7.50;99.90
5850;DHT22;2951;47.712;9.400;2023-11-21T06:57:16;7.50;99.90
5850;DHT22;2951;47.712;9.400;2023-11-21T06:59:43;7.50;99.90
5850;DHT22;2951;47.712;9.400;2023-11-21T07:02:39;7.50;99.90
5850;DHT22;2951;47.712;9.400;2023-11-21T07:05:07;7.50;99.90
5850;DHT22;2951;47.712;9.400;2023-11-21T07:07:34;7.40;99.90
5850;DHT22;2951;47.712;9.400;2023-11-21T07:10:02;7.40;99.90
5850;DHT22;2951;47.712;9.400;2023-11-21T07:12:30;7.40;99.90
5850;DHT22;2951;47.712;9.400;2023-11-21T07:14:57;7.40;99.90
5850;DHT22;2951;47.712;9.400;2023-11-21T07:17:24;7.40;99.90
5850;DHT22;2951;47.712;9.400;2023-11-21T07:19:51;7.40;99.90
5850;DHT22;2951;47.712;9.400;2023-11-21T07:22:18;7.40;99.90
5850;DHT22;2951;47.712;9.400;2023-11-21T07:24:48;7.40;99.90
5850;DHT22;2951;47.712;9.400;2023-11-21T07:27:16;7.40;99.90
5850;DHT22;2951;47.712;9.400;2023-11-21T07:29:43;7.40;99.90
5850;DHT22;2951;47.712;9.400;2023-11-21T07:32:10;7.40;99.90
5850;DHT22;2951;47.712;9.400;2023-11-21T07:34:37;7.40;99.90
5850;DHT22;2951;47.712;9.400;2023-11-21T07:37:03;7.50;99.90
5850;DHT22;2951;47.712;9.400;2023-11-21T07:39:30;7.50;99.90
5850;DHT22;2951;47.712;9.400;2023-11-21T07:41:57;7.60;99.90
5850;DHT22;2951;47.712;9.400;2023-11-21T07:44:27;7.50;99.90
5850;DHT22;2951;47.712;9.400;2023-11-21T07:46:54;7.60;99.90
5850;DHT22;2951;47.712;9.400;2023-11-21T07:49:24;7.50;99.90
5850;DHT22;2951;47.712;9.400;2023-11-21T07:51:51;7.50;99.90
5850;DHT22;2951;47.712;9.400;2023-11-21T07:54:18;7.50;99.90
5850;DHT22;2951;47.712;9.400;2023-11-21T07:56:47;7.50;99.90
5850;DHT22;2951;47.712;9.400;2023-11-21T07:59:15;7.60;99.90
5850;DHT22;2951;47.712;9.400;2023-11-21T08:01:43;7.70;99.90
5850;DHT22;2951;47.712;9.400;2023-11-21T08:04:12;7.70;99.90
5850;DHT22;2951;47.712;9.400;2023-11-21T08:06:39;7.80;99.90
5850;DHT22;2951;47.712;9.400;2023-11-21T08:09:07;7.80;99.90
5850;DHT22;2951;47.712;9.400;2023-11-21T08:11:38;7.90;99.90
5850;DHT22;2951;47.712;9.400;2023-11-21T08:14:06;8.00;99.90
5850;DHT22;2951;47.712;9.400;2023-11-21T08:16:33;7.90;99.90
5850;DHT22;2951;47.712;9.400;2023-11-21T08:19:00;7.90;99.90
5850;DHT22;2951;47.712;9.400;2023-11-21T08:21:27;7.90;99.90
5850;DHT22;2951;47.712;9.400;2023-11-21T08:23:55;7.90;99.90
5850;DHT22;2951;47.712;9.400;2023-11-21T08:26:23;7.90;99.90
5850;DHT22;2951;47.712;9.400;2023-11-21T08:28:50;8.10;99.90
5850;DHT22;2951;47.712;9.400;2023-11-21T08:31:25;8.10;99.90
5850;DHT22;2951;47.712;9.400;2023-11-21T08:33:55;8.20;99.90
5850;DHT22;2951;47.712;9.400;2023-11-21T08:36:25;8.20;99.90
5850;DHT22;2951;47.712;9.400;2023-11-21T08:38:52;8.20;99.90
5850;DHT22;2951;47.712;9.400;2023-11-21T08:41:18;8.20;99.90
5850;DHT22;2951;47.712;9.400;2023-11-21T08:43:48;8.30;99.90
5850;DHT22;2951;47.712;9.400;2023-11-21T08:46:15;8.30;99.90
5850;DHT22;2951;47.712;9.400;2023-11-21T08:48:43;8.30;99.90
5850;DHT22;2951;47.712;9.400;2023-11-21T08:51:10;8.30;99.90
5850;DHT22;2951;47.712;9.400;2023-11-21T08:53:38;8.30;99.90
5850;DHT22;2951;47.712;9.400;2023-11-21T08:56:05;8.30;99.90
5850;DHT22;2951;47.712;9.400;2023-11-21T08:58:32;8.40;99.90
5850;DHT22;2951;47.712;9.400;2023-11-21T09:00:59;8.40;99.90
5850;DHT22;2951;47.712;9.400;2023-11-21T09:06:12;8.30;99.90
5850;DHT22;2951;47.712;9.400;2023-11-21T09:08:39;8.30;99.90
5850;DHT22;2951;47.712;9.400;2023-11-21T09:11:05;8.30;99.90
5850;DHT22;2951;47.712;9.400;2023-11-21T09:13:34;8.40;99.90
5850;DHT22;2951;47.712;9.400;2023-11-21T09:16:06;8.50;99.90
5850;DHT22;2951;47.712;9.400;2023-11-21T09:18:33;8.50;99.90
5850;DHT22;2951;47.712;9.400;2023-11-21T09:21:00;8.70;99.90
5850;DHT22;2951;47.712;9.400;2023-11-21T09:23:27;8.80;99.90
5850;DHT22;2951;47.712;9.400;2023-11-21T09:25:54;8.80;99.90
5850;DHT22;2951;47.712;9.400;2023-11-21T09:28:23;8.80;99.90
5850;DHT22;2951;47.712;9.400;2023-11-21T09:30:50;8.80;99.90
5850;DHT22;2951;47.712;9.400;2023-11-21T09:33:17;8.80;99.90
5850;DHT22;2951;47.712;9.400;2023-11-21T09:35:43;8.70;99.90
5850;DHT22;2951;47.712;9.400;2023-11-21T09:38:10;8.70;99.90
5850;DHT22;2951;47.712;9.400;2023-11-21T09:40:38;8.60;99.90
5850;DHT22;2951;47.712;9.400;2023-11-21T09:43:17;8.50;99.90
5850;DHT22;2951;47.712;9.400;2023-11-21T09:45:47;8.50;99.90
5850;DHT22;2951;47.712;9.400;2023-11-21T09:48:17;8.50;99.90
5850;DHT22;2951;47.712;9.400;2023-11-21T09:50:44;8.50;99.90
5850;DHT22;2951;47.712;9.400;2023-11-21T09:53:17;8.50;99.90
5850;DHT22;2951;47.712;9.400;2023-11-21T09:55:45;8.70;99.90
5850;DHT22;2951;47.712;9.400;2023-11-21T09:58:13;8.80;99.90
5850;DHT22;2951;47.712;9.400;2023-11-21T10:03:12;9.00;99.90
5850;DHT22;2951;47.712;9.400;2023-11-21T10:05:40;9.00;99.90
5850;DHT22;2951;47.712;9.400;2023-11-21T10:08:07;9.20;99.90
5850;DHT22;2951;47.712;9.400;2023-11-21T10:10:34;9.20;99.90
5850;DHT22;2951;47.712;9.400;2023-11-21T10:13:03;9.30;99.90
5850;DHT22;2951;47.712;9.400;2023-11-21T10:15:34;9.30;99.90
5850;DHT22;2951;47.712;9.400;2023-11-21T10:18:02;9.40;99.90
5850;DHT22;2951;47.712;9.400;2023-11-21T10:20:30;9.40;99.90
5850;DHT22;2951;47.712;9.400;2023-11-21T10:23:00;9.40;99.90
5850;DHT22;2951;47.712;9.400;2023-11-21T10:25:31;9.30;99.90
5850;DHT22;2951;47.712;9.400;2023-11-21T10:27:58;9.40;99.90
5850;DHT22;2951;47.712;9.400;2023-11-21T10:30:28;9.40;99.90
5850;DHT22;2951;47.712;9.400;2023-11-21T10:32:59;9.40;99.90
5850;DHT22;2951;47.712;9.400;2023-11-21T10:38:26;9.40;99.90
5850;DHT22;2951;47.712;9.400;2023-11-21T10:40:54;9.50;99.90
5850;DHT22;2951;47.712;9.400;2023-11-21T10:43:24;9.40;99.90
5850;DHT22;2951;47.712;9.400;2023-11-21T10:45:54;9.40;99.90
5850;DHT22;2951;47.712;9.400;2023-11-21T10:48:24;9.50;99.90
5850;DHT22;2951;47.712;9.400;2023-11-21T10:50:51;9.60;99.90
5850;DHT22;2951;47.712;9.400;2023-11-21T10:53:18;9.80;99.90
5850;DHT22;2951;47.712;9.400;2023-11-21T10:55:45;10.00;99.90
5850;DHT22;2951;47.712;9.400;2023-11-21T10:58:13;10.10;99.90
5850;DHT22;2951;47.712;9.400;2023-11-21T11:00:40;10.20;99.90
5850;DHT22;2951;47.712;9.400;2023-11-21T11:03:07;10.40;99.90
5850;DHT22;2951;47.712;9.400;2023-11-21T11:05:43;10.30;99.90
5850;DHT22;2951;47.712;9.400;2023-11-21T11:08:15;10.10;99.90
5850;DHT22;2951;47.712;9.400;2023-11-21T11:10:45;10.10;99.90
5850;DHT22;2951;47.712;9.400;2023-11-21T11:13:14;10.20;99.90
5850;DHT22;2951;47.712;9.400;2023-11-21T11:15:42;10.10;99.90
5850;DHT22;2951;47.712;9.400;2023-11-21T11:18:09;10.10;99.90
5850;DHT22;2951;47.712;9.400;2023-11-21T11:20:37;10.20;99.90
5850;DHT22;2951;47.712;9.400;2023-11-21T11:23:10;10.30;99.90
5850;DHT22;2951;47.712;9.400;2023-11-21T11:33:39;10.10;99.90
5850;DHT22;2951;47.712;9.400;2023-11-21T11:38:47;10.30;99.90
5850;DHT22;2951;47.712;9.400;2023-11-21T11:41:34;10.30;99.90
5850;DHT22;2951;47.712;9.400;2023-11-21T11:44:01;10.30;99.90
5850;DHT22;2951;47.712;9.400;2023-11-21T11:46:41;10.10;99.90
5850;DHT22;2951;47.712;9.400;2023-11-21T11:49:10;10.10;99.90
5850;DHT22;2951;47.712;9.400;2023-11-21T11:51:37;9.90;99.90
5850;DHT22;2951;47.712;9.400;2023-11-21T11:54:05;9.90;99.90
5850;DHT22;2951;47.712;9.400;2023-11-21T11:56:33;9.90;99.90
5850;DHT22;2951;47.712;9.400;2023-11-21T11:59:03;9.90;99.90
5850;DHT22;2951;47.712;9.400;2023-11-21T12:01:31;9.80;99.90
5850;DHT22;2951;47.712;9.400;2023-11-21T12:06:41;9.90;99.90
5850;DHT22;2951;47.712;9.400;2023-11-21T12:09:18;9.90;99.90
5850;DHT22;2951;47.712;9.400;2023-11-21T12:11:45;9.90;99.90
5850;DHT22;2951;47.712;9.400;2023-11-21T12:14:13;9.80;99.90
5850;DHT22;2951;47.712;9.400;2023-11-21T12:16:40;9.60;99.90
5850;DHT22;2951;47.712;9.400;2023-11-21T12:19:07;9.50;99.90
5850;DHT22;2951;47.712;9.400;2023-11-21T12:21:33;9.30;99.90
5850;DHT22;2951;47.712;9.400;2023-11-21T12:24:01;9.40;99.90
5850;DHT22;2951;47.712;9.400;2023-11-21T12:26:27;9.50;99.90
5850;DHT22;2951;47.712;9.400;2023-11-21T12:28:54;9.50;99.90
5850;DHT22;2951;47.712;9.400;2023-11-21T12:31:24;9.40;99.90
5850;DHT22;2951;47.712;9.400;2023-11-21T12:33:52;9.40;99.90
5850;DHT22;2951;47.712;9.400;2023-11-21T12:36:19;9.40;99.90
5850;DHT22;2951;47.712;9.400;2023-11-21T12:38:45;9.30;99.90
5850;DHT22;2951;47.712;9.400;2023-11-21T12:41:12;9.20;99.90
5850;DHT22;2951;47.712;9.400;2023-11-21T12:43:41;9.30;99.90
5850;DHT22;2951;47.712;9.400;2023-11-21T12:46:10;9.30;99.90
5850;DHT22;2951;47.712;9.400;2023-11-21T12:48:37;9.30;99.90
5850;DHT22;2951;47.712;9.400;2023-11-21T12:51:09;9.40;99.90
5850;DHT22;2951;47.712;9.400;2023-11-21T12:53:36;9.50;99.90
5850;DHT22;2951;47.712;9.400;2023-11-21T12:56:10;9.60;99.90
5850;DHT22;2951;47.712;9.400;2023-11-21T12:58:38;9.50;99.90
5850;DHT22;2951;47.712;9.400;2023-11-21T13:01:08;9.60;99.90
5850;DHT22;2951;47.712;9.400;2023-11-21T13:03:40;9.70;99.90
5850;DHT22;2951;47.712;9.400;2023-11-21T13:06:07;9.70;99.90
5850;DHT22;2951;47.712;9.400;2023-11-21T13:08:34;9.70;99.90
5850;DHT22;2951;47.712;9.400;2023-11-21T13:11:01;9.80;99.90
5850;DHT22;2951;47.712;9.400;2023-11-21T13:13:30;9.70;99.90
5850;DHT22;2951;47.712;9.400;2023-11-21T13:16:01;9.70;99.90
5850;DHT22;2951;47.712;9.400;2023-11-21T13:18:31;9.70;99.90
5850;DHT22;2951;47.712;9.400;2023-11-21T13:20:58;9.50;99.90
5850;DHT22;2951;47.712;9.400;2023-11-21T13:23:26;9.40;99.90
5850;DHT22;2951;47.712;9.400;2023-11-21T13:25:53;9.40;99.90
5850;DHT22;2951;47.712;9.400;2023-11-21T13:28:28;9.40;99.90
5850;DHT22;2951;47.712;9.400;2023-11-21T13:30:59;9.50;99.90
5850;DHT22;2951;47.712;9.400;2023-11-21T13:33:47;9.60;99.90
5850;DHT22;2951;47.712;9.400;2023-11-21T13:36:22;9.90;99.90
5850;DHT22;2951;47.712;9.400;2023-11-21T13:38:52;10.20;99.90
5850;DHT22;2951;47.712;9.400;2023-11-21T13:41:20;10.10;99.90
5850;DHT22;2951;47.712;9.400;2023-11-21T13:43:49;10.00;99.90
5850;DHT22;2951;47.712;9.400;2023-11-21T13:46:27;10.10;99.90
5850;DHT22;2951;47.712;9.400;2023-11-21T13:48:54;10.20;99.90
5850;DHT22;2951;47.712;9.400;2023-11-21T13:51:23;10.20;99.90
5850;DHT22;2951;47.712;9.400;2023-11-21T13:53:59;10.50;99.90
5850;DHT22;2951;47.712;9.400;2023-11-21T13:56:25;10.90;99.90
5850;DHT22;2951;47.712;9.400;2023-11-21T13:58:55;11.20;99.90
5850;DHT22;2951;47.712;9.400;2023-11-21T14:01:23;11.70;99.90
5850;DHT22;2951;47.712;9.400;2023-11-21T14:04:19;12.10;99.90
5850;DHT22;2951;47.712;9.400;2023-11-21T14:06:53;11.80;99.90
5850;DHT22;2951;47.712;9.400;2023-11-21T14:09:21;11.70;99.90
5850;DHT22;2951;47.712;9.400;2023-11-21T14:11:50;11.20;99.90
5850;DHT22;2951;47.712;9.400;2023-11-21T14:14:21;10.80;99.90
5850;DHT22;2951;47.712;9.400;2023-11-21T14:16:48;10.50;99.90
5850;DHT22;2951;47.712;9.400;2023-11-21T14:19:15;10.00;99.90
5850;DHT22;2951;47.712;9.400;2023-11-21T14:21:45;9.80;99.90
5850;DHT22;2951;47.712;9.400;2023-11-21T14:24:12;9.60;99.90
5850;DHT22;2951;47.712;9.400;2023-11-21T14:26:46;9.70;99.90
5850;DHT22;2951;47.712;9.400;2023-11-21T14:29:13;9.70;99.90
5850;DHT22;2951;47.712;9.400;2023-11-21T14:31:42;9.60;99.90
5850;DHT22;2951;47.712;9.400;2023-11-21T14:34:10;9.40;99.90
5850;DHT22;2951;47.712;9.400;2023-11-21T14:36:44;9.30;99.90
5850;DHT22;2951;47.712;9.400;2023-11-21T14:39:11;9.20;99.90
5850;DHT22;2951;47.712;9.400;2023-11-21T14:41:49;9.30;99.90
5850;DHT22;2951;47.712;9.400;2023-11-21T14:44:17;9.10;99.90
5850;DHT22;2951;47.712;9.400;2023-11-21T14:46:43;9.00;99.90
5850;DHT22;2951;47.712;9.400;2023-11-21T14:49:17;9.00;99.90
5850;DHT22;2951;47.712;9.400;2023-11-21T14:51:47;8.90;99.90
5850;DHT22;2951;47.712;9.400;2023-11-21T14:54:31;8.90;99.90
5850;DHT22;2951;47.712;9.400;2023-11-21T14:57:11;8.90;99.90
5850;DHT22;2951;47.712;9.400;2023-11-21T14:59:42;9.00;99.90
5850;DHT22;2951;47.712;9.400;2023-11-21T15:02:40;8.90;99.90
5850;DHT22;2951;47.712;9.400;2023-11-21T15:05:17;8.90;99.90
5850;DHT22;2951;47.712;9.400;2023-11-21T15:07:45;8.80;99.90
5850;DHT22;2951;47.712;9.400;2023-11-21T15:10:12;8.80;99.90
5850;DHT22;2951;47.712;9.400;2023-11-21T15:12:42;8.70;99.90
5850;DHT22;2951;47.712;9.400;2023-11-21T15:15:10;8.70;99.90
5850;DHT22;2951;47.712;9.400;2023-11-21T15:17:38;8.60;99.90
5850;DHT22;2951;47.712;9.400;2023-11-21T15:20:10;8.70;99.90
5850;DHT22;2951;47.712;9.400;2023-11-21T15:22:39;8.70;99.90
5850;DHT22;2951;47.712;9.400;2023-11-21T15:25:06;8.70;99.90
5850;DHT22;2951;47.712;9.400;2023-11-21T15:27:37;8.70;99.90
5850;DHT22;2951;47.712;9.400;2023-11-21T15:30:05;8.60;99.90
5850;DHT22;2951;47.712;9.400;2023-11-21T15:32:31;8.60;99.90
5850;DHT22;2951;47.712;9.400;2023-11-21T15:34:58;8.70;99.90
5850;DHT22;2951;47.712;9.400;2023-11-21T15:37:25;8.70;99.90
5850;DHT22;2951;47.712;9.400;2023-11-21T15:39:54;8.60;99.90
5850;DHT22;2951;47.712;9.400;2023-11-21T15:42:21;8.50;99.90
5850;DHT22;2951;47.712;9.400;2023-11-21T15:44:48;8.50;99.90
5850;DHT22;2951;47.712;9.400;2023-11-21T15:47:16;8.50;99.90
5850;DHT22;2951;47.712;9.400;2023-11-21T15:49:43;8.50;99.90
5850;DHT22;2951;47.712;9.400;2023-11-21T15:52:14;8.60;99.90
5850;DHT22;2951;47.712;9.400;2023-11-21T15:54:41;8.60;99.90
5850;DHT22;2951;47.712;9.400;2023-11-21T15:57:08;8.50;99.90
5850;DHT22;2951;47.712;9.400;2023-11-21T15:59:39;8.40;99.90
5850;DHT22;2951;47.712;9.400;2023-11-21T16:02:06;8.40;99.90
5850;DHT22;2951;47.712;9.400;2023-11-21T16:04:34;8.50;99.90
5850;DHT22;2951;47.712;9.400;2023-11-21T16:07:03;8.50;99.90
5850;DHT22;2951;47.712;9.400;2023-11-21T16:09:35;8.40;99.90
5850;DHT22;2951;47.712;9.400;2023-11-21T16:12:05;8.40;99.90
5850;DHT22;2951;47.712;9.400;2023-11-21T16:14:33;8.40;99.90
5850;DHT22;2951;47.712;9.400;2023-11-21T16:17:08;8.50;99.90
5850;DHT22;2951;47.712;9.400;2023-11-21T16:19:35;8.50;99.90
5850;DHT22;2951;47.712;9.400;2023-11-21T16:22:02;8.50;99.90
5850;DHT22;2951;47.712;9.400;2023-11-21T16:24:31;8.50;99.90
5850;DHT22;2951;47.712;9.400;2023-11-21T16:27:00;8.50;99.90
5850;DHT22;2951;47.712;9.400;2023-11-21T16:29:28;8.40;99.90
5850;DHT22;2951;47.712;9.400;2023-11-21T16:31:57;8.40;99.90
5850;DHT22;2951;47.712;9.400;2023-11-21T16:34:24;8.30;99.90
5850;DHT22;2951;47.712;9.400;2023-11-21T16:36:51;8.20;99.90
5850;DHT22;2951;47.712;9.400;2023-11-21T16:39:18;8.20;99.90
5850;DHT22;2951;47.712;9.400;2023-11-21T16:41:46;8.10;99.90
5850;DHT22;2951;47.712;9.400;2023-11-21T16:44:19;8.20;99.90
5850;DHT22;2951;47.712;9.400;2023-11-21T16:46:49;8.20;99.90
5850;DHT22;2951;47.712;9.400;2023-11-21T16:49:33;8.30;99.90